createdAt,value
2019-03-22T00:00:27.224Z,7.10
2019-03-22T00:02:56.631Z,7.20
2019-03-22T00:05:25.980Z,7.30
2019-03-22T00:07:55.323Z,7.30
2019-03-22T00:10:24.666Z,7.30
2019-03-22T00:12:54.013Z,7.40
2019-03-22T00:15:23.355Z,7.40
2019-03-22T00:17:52.697Z,7.60
2019-03-22T00:20:22.040Z,7.60
2019-03-22T00:22:51.384Z,7.70
2019-03-22T00:25:20.734Z,7.80
2019-03-22T00:27:50.088Z,7.80
2019-03-22T00:30:19.527Z,7.90
2019-03-22T00:32:48.853Z,7.90
2019-03-22T00:35:18.201Z,7.90
2019-03-22T00:37:47.543Z,8.00
2019-03-22T00:40:17.055Z,8.00
2019-03-22T00:42:46.398Z,8.20
2019-03-22T00:45:15.823Z,8.20
2019-03-22T00:47:45.161Z,8.30
2019-03-22T00:50:15.148Z,8.40
2019-03-22T00:52:44.486Z,8.40
2019-03-22T00:55:13.829Z,8.50
2019-03-22T00:57:43.170Z,8.50
2019-03-22T01:00:15.023Z,8.60
2019-03-22T01:02:44.358Z,8.60
2019-03-22T01:05:15.909Z,8.60
2019-03-22T01:07:45.254Z,8.70
2019-03-22T01:10:15.501Z,8.70
2019-03-22T01:12:44.923Z,8.80
2019-03-22T01:15:16.004Z,8.70
2019-03-22T01:17:45.359Z,8.70
2019-03-22T01:20:15.608Z,8.80
2019-03-22T01:22:44.947Z,8.80
2019-03-22T01:25:14.530Z,8.90
2019-03-22T01:27:43.866Z,8.80
2019-03-22T01:30:16.088Z,8.90
2019-03-22T01:32:45.439Z,8.80
2019-03-22T01:35:15.632Z,8.90
2019-03-22T01:37:44.971Z,8.80
2019-03-22T01:40:16.250Z,8.90
2019-03-22T01:42:45.595Z,8.90
2019-03-22T01:45:16.850Z,8.80
2019-03-22T01:47:46.188Z,8.80
2019-03-22T01:50:19.131Z,8.70
2019-03-22T01:52:48.537Z,8.80
2019-03-22T01:55:17.890Z,8.70
2019-03-22T01:57:53.673Z,8.80
2019-03-22T02:00:18.680Z,8.70
2019-03-22T02:02:48.039Z,8.80
2019-03-22T02:05:17.932Z,8.70
2019-03-22T02:07:47.271Z,8.70
2019-03-22T02:10:17.944Z,8.70
2019-03-22T02:12:47.292Z,8.70
2019-03-22T02:15:17.241Z,8.70
2019-03-22T02:17:46.658Z,8.70
2019-03-22T02:20:18.362Z,8.80
2019-03-22T02:22:47.799Z,8.80
2019-03-22T02:25:17.622Z,8.70
2019-03-22T02:27:46.978Z,8.70
2019-03-22T02:30:18.465Z,8.60
2019-03-22T02:32:47.862Z,8.50
2019-03-22T02:35:28.366Z,8.50
2019-03-22T02:37:48.270Z,8.50
2019-03-22T02:40:17.682Z,8.60
2019-03-22T02:42:47.024Z,8.60
2019-03-22T02:45:16.803Z,8.60
2019-03-22T02:47:46.614Z,8.70
2019-03-22T02:50:19.377Z,8.60
2019-03-22T02:52:47.455Z,8.60
2019-03-22T02:55:16.972Z,8.60
2019-03-22T02:57:46.315Z,8.60
2019-03-22T03:00:18.739Z,8.60
2019-03-22T03:02:48.085Z,8.60
2019-03-22T03:05:17.605Z,8.50
2019-03-22T03:07:46.933Z,8.50
2019-03-22T03:10:17.686Z,8.50
2019-03-22T03:12:47.106Z,8.60
2019-03-22T03:15:17.963Z,8.50
2019-03-22T03:17:47.442Z,8.50
2019-03-22T03:20:19.372Z,8.40
2019-03-22T03:22:48.886Z,8.50
2019-03-22T03:25:18.549Z,8.40
2019-03-22T03:27:47.941Z,8.40
2019-03-22T03:30:22.015Z,8.40
2019-03-22T03:32:51.385Z,8.30
2019-03-22T03:35:20.870Z,8.30
2019-03-22T03:37:50.488Z,8.30
2019-03-22T03:40:20.106Z,8.20
2019-03-22T03:42:49.494Z,8.20
2019-03-22T03:45:37.590Z,8.20
2019-03-22T03:48:11.150Z,8.20
2019-03-22T03:50:41.010Z,8.20
2019-03-22T03:53:10.370Z,8.20
2019-03-22T03:55:39.704Z,8.20
2019-03-22T03:58:09.047Z,8.20
2019-03-22T04:00:38.403Z,8.20
2019-03-22T04:03:07.739Z,8.20
2019-03-22T04:05:37.088Z,8.30
2019-03-22T04:08:06.598Z,8.30
2019-03-22T04:10:35.953Z,8.40
2019-03-22T04:13:06.055Z,8.30
2019-03-22T04:15:35.403Z,8.30
2019-03-22T04:18:04.736Z,8.20
2019-03-22T04:20:34.092Z,8.20
2019-03-22T04:23:03.467Z,8.20
2019-03-22T04:25:32.780Z,8.10
2019-03-22T04:28:02.128Z,8.10
2019-03-22T04:30:31.537Z,8.20
2019-03-22T04:33:01.071Z,8.20
2019-03-22T04:35:30.417Z,8.20
2019-03-22T04:37:59.772Z,8.20
2019-03-22T04:40:30.561Z,8.30
2019-03-22T04:43:00.183Z,8.30
2019-03-22T04:45:36.069Z,8.30
2019-03-22T04:48:30.750Z,8.30
2019-03-22T04:51:03.766Z,8.30
2019-03-22T04:53:39.272Z,8.30
2019-03-22T04:56:13.054Z,8.40
2019-03-22T04:58:47.287Z,8.40
2019-03-22T05:01:18.734Z,8.40
2019-03-22T05:03:48.265Z,8.40
2019-03-22T05:06:19.109Z,8.40
2019-03-22T05:08:50.261Z,8.40
2019-03-22T05:11:22.018Z,8.40
2019-03-22T05:13:55.626Z,8.50
2019-03-22T05:16:25.238Z,8.50
2019-03-22T05:18:56.384Z,8.50
2019-03-22T05:21:28.431Z,8.50
2019-03-22T05:24:02.747Z,8.50
2019-03-22T05:26:36.794Z,8.50
2019-03-22T05:29:09.066Z,8.50
2019-03-22T05:32:03.950Z,8.50
2019-03-22T05:34:33.298Z,8.50
2019-03-22T05:37:02.635Z,8.50
2019-03-22T05:39:31.992Z,8.50
2019-03-22T05:42:01.332Z,8.40
2019-03-22T05:44:30.679Z,8.40
2019-03-22T05:47:00.014Z,8.50
2019-03-22T05:49:29.358Z,8.40
2019-03-22T05:51:58.693Z,8.50
2019-03-22T05:54:28.049Z,8.50
2019-03-22T05:56:57.389Z,8.50
2019-03-22T05:59:26.745Z,8.50
2019-03-22T06:01:56.087Z,8.60
2019-03-22T06:04:25.428Z,8.60
2019-03-22T06:06:54.772Z,8.60
2019-03-22T06:09:24.122Z,8.60
2019-03-22T06:11:53.457Z,8.60
2019-03-22T06:14:22.856Z,8.60
2019-03-22T06:16:52.158Z,8.70
2019-03-22T06:19:21.506Z,8.70
2019-03-22T06:21:50.842Z,8.70
2019-03-22T06:24:22.196Z,8.70
2019-03-22T06:26:51.253Z,8.60
2019-03-22T06:29:20.596Z,8.60
2019-03-22T06:31:49.937Z,8.70
2019-03-22T06:34:19.291Z,8.70
2019-03-22T06:36:48.634Z,8.80
2019-03-22T06:39:17.975Z,8.80
2019-03-22T06:41:47.336Z,8.80
2019-03-22T06:44:16.677Z,8.80
2019-03-22T06:46:46.019Z,8.80
2019-03-22T06:49:15.361Z,8.80
2019-03-22T06:51:45.567Z,8.80
2019-03-22T06:54:14.917Z,8.80
2019-03-22T06:56:44.255Z,8.80
2019-03-22T06:59:13.614Z,8.90
2019-03-22T07:01:42.960Z,8.80
2019-03-22T07:04:12.300Z,8.80
2019-03-22T07:06:41.638Z,8.80
2019-03-22T07:09:11.144Z,8.90
2019-03-22T07:11:41.842Z,8.90
2019-03-22T07:14:11.437Z,8.90
2019-03-22T07:16:40.779Z,8.90
2019-03-22T07:19:10.122Z,8.90
2019-03-22T07:21:39.471Z,8.90
2019-03-22T07:24:08.879Z,8.90
2019-03-22T07:26:38.229Z,9.00
2019-03-22T07:29:07.574Z,9.00
2019-03-22T07:31:36.910Z,9.10
2019-03-22T07:34:06.421Z,9.20
2019-03-22T07:36:35.772Z,9.10
2019-03-22T07:39:08.518Z,9.10
2019-03-22T07:41:37.999Z,9.10
2019-03-22T07:44:07.341Z,9.10
2019-03-22T07:46:36.682Z,9.10
2019-03-22T07:49:06.022Z,9.10
2019-03-22T07:51:35.364Z,9.10
2019-03-22T07:54:04.710Z,9.20
2019-03-22T07:56:34.051Z,9.30
2019-03-22T07:59:03.396Z,9.30
2019-03-22T08:01:32.740Z,9.40
2019-03-22T08:04:02.078Z,9.30
2019-03-22T08:06:31.428Z,9.30
2019-03-22T08:09:00.768Z,9.20
2019-03-22T08:11:30.120Z,9.20
2019-03-22T08:13:59.476Z,9.10
2019-03-22T08:16:29.181Z,9.10
2019-03-22T08:18:58.523Z,9.10
2019-03-22T08:21:27.879Z,9.20
2019-03-22T08:23:57.207Z,9.20
2019-03-22T08:26:26.558Z,9.20
2019-03-22T08:28:55.902Z,9.20
2019-03-22T08:31:25.247Z,9.20
2019-03-22T08:33:54.578Z,9.30
2019-03-22T08:36:23.987Z,9.40
2019-03-22T08:38:53.391Z,9.60
2019-03-22T08:41:24.034Z,9.70
2019-03-22T08:43:53.465Z,9.90
2019-03-22T08:46:22.855Z,9.90
2019-03-22T08:48:52.158Z,9.90
2019-03-22T08:51:21.506Z,9.90
2019-03-22T08:53:55.370Z,10.00
2019-03-22T08:56:21.916Z,10.20
2019-03-22T08:58:51.266Z,10.40
2019-03-22T09:01:20.626Z,10.30
2019-03-22T09:03:49.975Z,10.30
2019-03-22T09:06:19.345Z,10.30
2019-03-22T09:08:48.682Z,10.30
2019-03-22T09:11:18.311Z,10.40
2019-03-22T09:13:47.682Z,10.40
2019-03-22T09:16:17.032Z,10.50
2019-03-22T09:18:46.362Z,10.70
2019-03-22T09:21:15.684Z,10.70
2019-03-22T09:23:45.025Z,10.70
2019-03-22T09:26:14.416Z,10.70
2019-03-22T09:28:43.725Z,10.90
2019-03-22T09:31:13.142Z,10.90
2019-03-22T09:33:42.754Z,11.00
2019-03-22T09:36:12.097Z,10.80
2019-03-22T09:38:41.738Z,10.80
2019-03-22T09:41:11.047Z,10.80
2019-03-22T09:43:40.394Z,11.10
2019-03-22T09:46:09.796Z,11.10
2019-03-22T09:48:39.120Z,11.20
2019-03-22T09:51:08.454Z,11.30
2019-03-22T09:53:37.828Z,11.40
2019-03-22T09:56:08.976Z,11.40
2019-03-22T09:58:38.350Z,11.50
2019-03-22T10:01:07.851Z,11.60
2019-03-22T10:03:37.224Z,11.60
2019-03-22T10:06:06.554Z,11.60
2019-03-22T10:08:35.900Z,11.70
2019-03-22T10:11:05.264Z,11.70
2019-03-22T10:13:34.592Z,11.80
2019-03-22T10:16:03.949Z,11.90
2019-03-22T10:18:33.395Z,11.90
2019-03-22T10:21:03.811Z,12.00
2019-03-22T10:23:33.195Z,12.10
2019-03-22T10:26:02.526Z,12.20
2019-03-22T10:28:31.865Z,12.40
2019-03-22T10:31:01.237Z,12.50
2019-03-22T10:33:30.598Z,12.50
2019-03-22T10:35:59.928Z,12.50
2019-03-22T10:38:31.889Z,12.60
2019-03-22T10:41:00.342Z,12.70
2019-03-22T10:43:29.681Z,12.70
2019-03-22T10:45:59.314Z,12.60
2019-03-22T10:48:28.729Z,12.50
2019-03-22T10:50:58.068Z,12.60
2019-03-22T10:53:27.417Z,12.70
2019-03-22T10:55:56.751Z,12.70
2019-03-22T10:58:26.109Z,12.70
2019-03-22T11:00:55.454Z,12.70
2019-03-22T11:03:24.808Z,12.60
2019-03-22T11:05:54.150Z,12.60
2019-03-22T11:08:23.677Z,12.60
2019-03-22T11:10:53.189Z,12.70
2019-03-22T11:13:22.539Z,12.70
2019-03-22T11:15:52.052Z,12.80
2019-03-22T11:18:21.399Z,12.90
2019-03-22T11:20:50.748Z,12.90
2019-03-22T11:23:20.104Z,13.00
2019-03-22T11:25:49.720Z,13.10
2019-03-22T11:28:19.073Z,13.10
2019-03-22T11:30:48.423Z,13.10
2019-03-22T11:33:17.783Z,13.30
2019-03-22T11:35:47.128Z,13.50
2019-03-22T11:38:16.737Z,13.60
2019-03-22T11:40:47.069Z,13.60
2019-03-22T11:43:16.495Z,13.60
2019-03-22T11:45:45.838Z,13.60
2019-03-22T11:48:15.180Z,13.80
2019-03-22T11:50:44.534Z,13.90
2019-03-22T11:53:13.872Z,13.90
2019-03-22T11:55:43.251Z,14.00
2019-03-22T11:58:12.559Z,14.00
2019-03-22T12:00:41.909Z,14.10
2019-03-22T12:03:11.249Z,14.10
2019-03-22T12:05:40.836Z,14.20
2019-03-22T12:08:10.221Z,14.30
2019-03-22T12:10:39.565Z,14.60
2019-03-22T12:13:08.908Z,14.80
2019-03-22T12:15:38.253Z,14.90
2019-03-22T12:18:07.591Z,15.10
2019-03-22T12:20:36.942Z,15.20
2019-03-22T12:23:06.325Z,15.50
2019-03-22T12:25:35.667Z,15.70
2019-03-22T12:28:05.011Z,15.90
2019-03-22T12:30:34.360Z,16.10
2019-03-22T12:33:03.705Z,16.30
2019-03-22T12:35:33.378Z,16.40
2019-03-22T12:38:02.795Z,16.60
2019-03-22T12:40:32.143Z,16.90
2019-03-22T12:43:01.489Z,17.10
2019-03-22T12:45:32.847Z,17.30
2019-03-22T12:48:02.197Z,17.50
2019-03-22T12:50:31.548Z,17.60
2019-03-22T12:53:00.898Z,17.60
2019-03-22T12:55:30.301Z,17.80
2019-03-22T12:57:59.676Z,17.90
2019-03-22T13:00:29.332Z,18.10
2019-03-22T13:02:58.684Z,18.30
2019-03-22T13:05:28.031Z,18.40
2019-03-22T13:07:57.375Z,18.50
2019-03-22T13:10:30.350Z,18.60
2019-03-22T13:12:59.690Z,18.70
2019-03-22T13:15:29.048Z,18.90
2019-03-22T13:17:58.399Z,19.00
2019-03-22T13:20:27.753Z,19.00
2019-03-22T13:22:57.093Z,19.10
2019-03-22T13:25:26.438Z,19.10
2019-03-22T13:27:55.790Z,19.30
2019-03-22T13:30:34.553Z,19.30
2019-03-22T13:33:04.798Z,19.40
2019-03-22T13:35:35.733Z,19.40
2019-03-22T13:38:05.318Z,19.50
2019-03-22T13:40:34.836Z,19.50
2019-03-22T13:43:04.185Z,19.50
2019-03-22T13:45:33.541Z,19.50
2019-03-22T13:48:02.902Z,19.60
2019-03-22T13:50:32.321Z,19.60
2019-03-22T13:53:01.666Z,19.50
2019-03-22T13:55:31.011Z,19.50
2019-03-22T13:58:00.360Z,19.50
2019-03-22T14:00:29.809Z,19.60
2019-03-22T14:03:03.017Z,19.70
2019-03-22T14:05:30.571Z,19.80
2019-03-22T14:07:59.915Z,19.90
2019-03-22T14:10:34.046Z,20.00
2019-03-22T14:13:06.200Z,20.10
2019-03-22T14:15:35.613Z,20.00
2019-03-22T14:18:05.670Z,20.20
2019-03-22T14:20:35.183Z,20.30
2019-03-22T14:23:04.972Z,20.30
2019-03-22T14:25:34.315Z,20.50
2019-03-22T14:28:03.658Z,20.60
2019-03-22T14:30:33.005Z,20.60
2019-03-22T14:33:12.629Z,20.40
2019-03-22T14:35:33.419Z,20.40
2019-03-22T14:38:02.774Z,20.40
2019-03-22T14:40:32.114Z,20.40
2019-03-22T14:43:01.552Z,20.60
2019-03-22T14:45:30.887Z,20.70
2019-03-22T14:48:00.237Z,20.70
2019-03-22T14:50:29.581Z,20.60
2019-03-22T14:52:58.999Z,20.50
2019-03-22T14:55:28.511Z,20.60
2019-03-22T14:57:57.864Z,20.50
2019-03-22T15:00:27.211Z,20.50
2019-03-22T15:02:56.564Z,20.40
2019-03-22T15:05:25.907Z,20.40
2019-03-22T15:07:55.263Z,20.50
2019-03-22T15:10:24.608Z,20.50
2019-03-22T15:12:53.955Z,20.60
2019-03-22T15:15:24.943Z,20.60
2019-03-22T15:17:58.636Z,20.60
2019-03-22T15:20:38.895Z,20.50
2019-03-22T15:23:26.343Z,20.50
2019-03-22T15:26:12.328Z,20.70
2019-03-22T15:28:59.482Z,20.60
2019-03-22T15:31:33.160Z,20.80
2019-03-22T15:34:19.124Z,20.90
2019-03-22T15:36:53.165Z,21.00
2019-03-22T15:39:30.566Z,21.10
2019-03-22T15:42:00.422Z,20.80
2019-03-22T15:44:29.772Z,20.80
2019-03-22T15:46:59.120Z,20.90
2019-03-22T15:49:28.464Z,20.90
2019-03-22T15:51:57.810Z,20.80
2019-03-22T15:54:27.352Z,20.60
2019-03-22T15:56:56.703Z,20.60
2019-03-22T15:59:26.047Z,20.50
2019-03-22T16:01:55.389Z,20.50
2019-03-22T16:04:24.746Z,20.70
2019-03-22T16:06:54.094Z,20.80
2019-03-22T16:09:23.448Z,20.80
2019-03-22T16:11:52.887Z,20.80
2019-03-22T16:14:22.230Z,20.70
2019-03-22T16:16:51.579Z,20.60
2019-03-22T16:19:20.931Z,20.60
2019-03-22T16:21:50.335Z,20.50
2019-03-22T16:24:19.684Z,20.30
2019-03-22T16:26:49.053Z,20.20
2019-03-22T16:29:18.401Z,20.20
2019-03-22T16:31:48.091Z,20.10
2019-03-22T16:34:17.451Z,20.00
2019-03-22T16:36:46.817Z,19.90
2019-03-22T16:39:16.163Z,19.70
2019-03-22T16:41:45.511Z,19.60
2019-03-22T16:44:14.850Z,19.60
2019-03-22T16:46:44.199Z,19.50
2019-03-22T16:49:13.547Z,19.60
2019-03-22T16:51:42.891Z,19.50
2019-03-22T16:54:12.238Z,19.50
2019-03-22T16:56:41.586Z,19.50
2019-03-22T16:59:10.972Z,19.40
2019-03-22T17:01:40.320Z,19.40
2019-03-22T17:04:09.668Z,19.30
2019-03-22T17:06:39.031Z,19.10
2019-03-22T17:09:08.771Z,19.00
2019-03-22T17:11:38.115Z,18.80
2019-03-22T17:14:07.458Z,18.70
2019-03-22T17:16:36.812Z,18.60
2019-03-22T17:19:06.194Z,18.50
2019-03-22T17:21:35.539Z,18.30
2019-03-22T17:24:04.940Z,18.20
2019-03-22T17:26:34.329Z,18.10
2019-03-22T17:29:03.680Z,18.00
2019-03-22T17:31:33.026Z,17.90
2019-03-22T17:34:02.370Z,17.80
2019-03-22T17:36:31.725Z,17.70
2019-03-22T17:39:01.067Z,17.60
2019-03-22T17:41:30.424Z,17.50
2019-03-22T17:43:59.767Z,17.40
2019-03-22T17:46:29.110Z,17.30
2019-03-22T17:48:58.457Z,17.30
2019-03-22T17:51:27.800Z,17.10
2019-03-22T17:53:57.147Z,17.00
2019-03-22T17:56:26.497Z,16.90
2019-03-22T17:58:55.839Z,16.80
2019-03-22T18:01:25.183Z,16.60
2019-03-22T18:03:54.527Z,16.20
2019-03-22T18:06:23.876Z,15.80
2019-03-22T18:08:53.227Z,15.50
2019-03-22T18:11:22.572Z,15.10
2019-03-22T18:13:51.915Z,14.90
2019-03-22T18:16:21.317Z,14.60
2019-03-22T18:18:50.655Z,14.40
2019-03-22T18:21:19.999Z,13.70
2019-03-22T18:23:49.342Z,13.30
2019-03-22T18:26:18.691Z,13.10
2019-03-22T18:28:48.076Z,12.80
2019-03-22T18:31:17.379Z,12.60
2019-03-22T18:33:46.726Z,12.40
2019-03-22T18:36:16.179Z,12.10
2019-03-22T18:38:45.523Z,11.80
2019-03-22T18:41:14.871Z,11.90
2019-03-22T18:43:44.313Z,11.80
2019-03-22T18:46:13.659Z,11.70
2019-03-22T18:48:43.046Z,11.70
2019-03-22T18:51:12.560Z,11.70
2019-03-22T18:53:41.911Z,11.60
2019-03-22T18:56:11.259Z,11.60
2019-03-22T18:58:40.599Z,11.50
2019-03-22T19:01:09.942Z,11.30
2019-03-22T19:03:39.302Z,11.20
2019-03-22T19:06:08.658Z,11.10
2019-03-22T19:08:38.014Z,11.10
2019-03-22T19:11:07.379Z,11.00
2019-03-22T19:13:36.714Z,10.90
2019-03-22T19:16:06.075Z,10.80
2019-03-22T19:18:35.420Z,10.70
2019-03-22T19:21:04.772Z,10.60
2019-03-22T19:23:34.112Z,10.40
2019-03-22T19:26:03.471Z,10.30
2019-03-22T19:28:32.814Z,10.20
2019-03-22T19:31:02.193Z,10.20
2019-03-22T19:33:31.535Z,9.90
2019-03-22T19:36:00.874Z,9.90
2019-03-22T19:38:30.221Z,9.80
2019-03-22T19:40:59.558Z,9.70
2019-03-22T19:43:28.902Z,9.60
2019-03-22T19:45:58.243Z,9.50
2019-03-22T19:48:27.577Z,9.50
2019-03-22T19:50:56.928Z,9.40
2019-03-22T19:53:26.276Z,9.40
2019-03-22T19:55:55.630Z,9.30
2019-03-22T19:58:24.991Z,9.30
2019-03-22T20:00:54.335Z,9.20
2019-03-22T20:03:23.680Z,9.10
2019-03-22T20:05:53.034Z,8.70
2019-03-22T20:08:22.380Z,8.50
2019-03-22T20:10:51.735Z,8.30
2019-03-22T20:13:22.176Z,8.40
2019-03-22T20:15:51.671Z,8.40
2019-03-22T20:18:21.010Z,8.30
2019-03-22T20:20:50.373Z,8.20
2019-03-22T20:23:19.713Z,8.20
2019-03-22T20:25:49.060Z,8.20
2019-03-22T20:28:18.400Z,8.30
2019-03-22T20:30:47.742Z,8.20
2019-03-22T20:33:17.082Z,8.20
2019-03-22T20:35:46.422Z,8.20
2019-03-22T20:38:15.764Z,8.20
2019-03-22T20:40:45.103Z,8.20
2019-03-22T20:43:14.442Z,8.30
2019-03-22T20:45:43.783Z,8.20
2019-03-22T20:48:13.127Z,8.30
2019-03-22T20:50:42.470Z,8.40
2019-03-22T20:53:11.827Z,8.40
2019-03-22T20:55:41.174Z,8.40
2019-03-22T20:58:10.683Z,8.40
2019-03-22T21:00:40.028Z,8.40
2019-03-22T21:03:09.374Z,8.40
2019-03-22T21:05:38.720Z,8.50
2019-03-22T21:08:08.060Z,8.30
2019-03-22T21:10:37.403Z,8.30
2019-03-22T21:13:06.748Z,8.20
2019-03-22T21:15:36.126Z,8.40
2019-03-22T21:18:05.462Z,8.30
2019-03-22T21:20:34.807Z,8.20
2019-03-22T21:23:04.143Z,8.00
2019-03-22T21:25:33.773Z,8.10
2019-03-22T21:28:03.991Z,8.00
2019-03-22T21:30:33.455Z,8.10
2019-03-22T21:33:02.800Z,8.10
2019-03-22T21:35:37.180Z,8.10
2019-03-22T21:38:10.783Z,8.20
2019-03-22T21:40:34.279Z,8.20
2019-03-22T21:43:03.620Z,8.20
2019-03-22T21:45:32.984Z,8.30
2019-03-22T21:48:02.326Z,8.40
2019-03-22T21:50:31.668Z,8.50
2019-03-22T21:53:01.012Z,8.40
2019-03-22T21:55:30.356Z,8.50
2019-03-22T21:57:59.699Z,8.50
2019-03-22T22:00:29.049Z,8.50
2019-03-22T22:02:58.395Z,8.50
2019-03-22T22:05:27.738Z,8.60
2019-03-22T22:07:57.087Z,8.60
2019-03-22T22:10:26.426Z,8.70
2019-03-22T22:12:55.767Z,8.70
2019-03-22T22:15:25.109Z,8.60
2019-03-22T22:17:54.456Z,8.60
2019-03-22T22:20:28.922Z,8.50
2019-03-22T22:22:54.936Z,8.70
2019-03-22T22:25:24.290Z,8.50
2019-03-22T22:27:53.633Z,8.70
2019-03-22T22:30:22.976Z,8.80
2019-03-22T22:32:52.324Z,8.80
2019-03-22T22:35:21.668Z,8.90
2019-03-22T22:37:51.024Z,8.80
2019-03-22T22:40:20.371Z,8.90
2019-03-22T22:42:49.749Z,9.00
2019-03-22T22:45:19.095Z,9.00
2019-03-22T22:47:48.447Z,9.00
2019-03-22T22:50:17.789Z,9.10
2019-03-22T22:52:47.152Z,9.20
2019-03-22T22:55:16.663Z,9.20
2019-03-22T22:57:46.014Z,9.20
2019-03-22T23:00:16.854Z,9.20
2019-03-22T23:02:46.271Z,9.30
2019-03-22T23:05:15.638Z,9.20
2019-03-22T23:07:44.982Z,9.10
2019-03-22T23:10:14.318Z,9.20
2019-03-22T23:12:44.297Z,9.20
2019-03-22T23:15:13.736Z,9.30
2019-03-22T23:17:43.080Z,9.30
2019-03-22T23:20:12.587Z,9.20
2019-03-22T23:22:41.919Z,9.20
2019-03-22T23:25:11.503Z,9.30
2019-03-22T23:27:40.851Z,9.30
2019-03-22T23:30:12.800Z,9.30
2019-03-22T23:32:42.310Z,9.40
2019-03-22T23:35:11.879Z,9.40
2019-03-22T23:37:41.222Z,9.50
2019-03-22T23:40:11.062Z,9.50
2019-03-22T23:42:40.407Z,9.60
2019-03-22T23:45:11.851Z,9.60
2019-03-22T23:47:41.237Z,9.60
2019-03-22T23:50:11.500Z,9.60
2019-03-22T23:52:40.797Z,9.50
2019-03-22T23:55:10.673Z,9.60
2019-03-22T23:57:40.019Z,9.60
